Ride Results

Elmhurst @ Waterloo (19-08-2007)
Ride distance: 85.0 km

Outcomes - Elmhurst @ Waterloo (19-08-2007)
Division No. of Entries Retired / DNE Completed Withdrawn Ineligible V/O Percentage Completed
HW 10 - 8 1 - 1 80.00%
MW 19 - 14 - - 5 73.68%
LW 11 - 6 1 - 4 54.55%
JN 5 - 3 1 - 1 60.00%
Totals 45 - 31 3 - 11 68.89%
Results - Elmhurst @ Waterloo (19-08-2007)
No. Rider Horse Place Time Leg Speeds Total
Km/Hr
H/R bpm
Heavyweight
82 Jarrod Robinson Julian 1 5:13:00 17.8, 14.9 16.29 39, 46, 47 (Avg:46)
855 Laura Salisbury Insaarmarm 2 5:28:00 14.5, 16.6 15.55 35, 42, 46 (Avg:44)
65 Carl Adamson Bowzatus 3 5:58:10 16.0, 12.8 14.24 32, 44, 49 (Avg:46)
107 Denis Sugars Highland View KD 3 5:58:10 14.9, 13.6 14.24 37, 36, 44 (Avg:40)
21 Shaun Bradley Menora Dark Moon 5 6:07:00 15.5, 12.5 13.90 30, 40, 48 (Avg:44)
45 Andrea Arranga Nurelee Tamaar 6 7:26:01 12.2, 10.7 11.43 36, 42, 49 (Avg:45)
852 Tim Brudenell Meadow View Eternal Flame 7 7:31:01 12.6, 10.1 11.31 33, 41, 47 (Avg:44)
94 Luke Steele Shadrach 8 8:21:00 10.4, 9.9 10.18 28, 38, 42 (Avg:40)
854 Fiona Finigan Aloha Zulu Lame L2 0:00:00 11.4, 10.3 - 38, 36, 58 (Avg:47)
7 Robert Punicki Tashani Rattle & Hum Withdrawn L1 0:00:00 - - 35, 54 (Avg:54)
Middleweight
13 Linda Tanian Kintamani Nidir 1 5:40:00 14.3, 15.7 15.00 36, 43, 41 (Avg:42)
15 Meg Wade Levi Ledgend 1 5:40:00 14.3, 15.7 15.00 37, 46, 56 (Avg:51)
95 Pauline Wallace Menora Fine Figure 3 6:07:00 15.3, 12.6 13.90 33, 36, 50 (Avg:43)
89 Sheryl Herbert Krishlah Maleeka 4 7:02:00 12.2, 11.9 12.09 36, 48, 50 (Avg:49)
49 Jessica Remfry Ennerdale Meccano 4 7:02:00 12.2, 11.9 12.09 36, 40, 45 (Avg:42)
78 Jennifer Pitman Meg 6 7:26:00 12.2, 10.7 11.43 36, 48, 48 (Avg:48)
84 Kristie Taprell Castlebar Topaz 7 7:31:05 11.5, 11.0 11.31 31, 42, 48 (Avg:45)
865 James Sheahan Castlebar Doolittle 8 7:31:06 11.5, 11.0 11.31 38, 48, 55 (Avg:51)
53 Beverley Rayner-Mason Karumba Banksia 9 7:31:07 12.2, 10.4 11.31 30, 46, 56 (Avg:51)
130 Jennifer Carland Musical Gully Tenor 10 7:36:00 11.7, 10.6 11.18 36, 46, 48 (Avg:47)
60 Leanne Wyllie Dunbraeton Farah 11 7:37:00 11.7, 10.6 11.16 32, 40, 48 (Avg:44)
181 Sharee Court Cromarty Park Simply The Best 12 7:50:00 11.4, 10.3 10.85 34, 46, 52 (Avg:49)
166 Christine Schepisi Al Bahir 13 8:02:00 11.0, 10.1 10.58 28, 36, 49 (Avg:42)
56 Wendy Bootle Roheryn Saadiya 14 8:21:00 10.4, 9.9 10.18 39, 44, 49 (Avg:46)
133 Barry Sinclair Chipawood Micah Lame L2 0:00:00 15.6, 9.5 - 39, 48, 60 (Avg:54)
44 Vanessa Smith Maskira Lame L2 0:00:00 12.2, 10.5 - 36, 47, 52 (Avg:49)
97 Gordon Wallace Menora Beagle Boy Heart Rate L2 0:00:00 15.5, 12.5 - 42, 48, 62 (Avg:55)
42 Hans Peuker Marybank Celia Lame L1 0:00:00 18.4 - 28, 40 (Avg:40)
142 Jan Scholes Gayland Mariah Lame L1 0:00:00 15.3 - 30, 41 (Avg:41)
Lightweight
91 Kim Noble Clovelly Park Rafiki 1 5:33:00 20.3, 12.2 15.32 36, 46, 50 (Avg:48)
11 Rohan Stanes Turingal Park Dartagnion 2 7:02:00 12.2, 11.9 12.09 37, 44, 47 (Avg:45)
23 Brittnee Smith Lucas 3 7:31:01 11.8, 10.8 11.31 35, 42, 52 (Avg:47)
850 Fiona Hodges Shuja Nadji Riffan 4 7:31:03 11.8, 10.8 11.31 36, 44, 56 (Avg:50)
180 Amily Daw Castlebar Darthvader 5 7:31:04 11.5, 11.0 11.31 37, 49, 49 (Avg:49)
61 Lois Sharam Musical Gully Instrument 6 8:02:01 11.0, 10.1 10.58 28, 42, 48 (Avg:45)
208 Janeen Smith Taylorsglen Osca Lame L2 0:00:00 12.1, 212.4 - 32, 40, 40 (Avg:40)
3 Caley Rees Michelle Mae Lame L1 0:00:00 11.3 - 43, 44 (Avg:44)
869 Trish Reeves Blue Cadence Lame L1 0:00:00 17.8 - 32, 50 (Avg:50)
875 Chloe Morris Reym Havana Lame P/R 0:00:00 - - 41
132 Kate Scott Shuja Bint Melika Withdrawn P/R 0:00:00 - - 27
Junior
140 Samantha Cubbin Clovelly Park Kimba 1 5:58:00 15.3, 13.2 14.25 28, 42, 48 (Avg:45)
88 Tahnee Lee Aloha St Nicholas 1 5:58:00 15.3, 13.2 14.25 36, 42, 48 (Avg:45)
877 Lana Gilbee Edilia The Sheik 3 7:50:02 12.1, 9.8 10.85 28, 38, 43 (Avg:40)
866 Ruby Blake Musical Gully Carousel Withdrawn L1 0:00:00 - - 36, 0 (Avg:0)
90 Samantha Noble Springridge Bungendore Lame L1 0:00:00 20.3 - 31, 43 (Avg:43)